BIRK/RKV METAR and TAF weather

Enter ICAO airport designator
Station Type Date Time Source
BIRK METAR 2022/12/05 15:00 UTC NOAA

BIRK 051500Z 00000KT CAVOK M02/M02 Q1043


Station Type Date Time Source
BIRK Decoded METAR 2022/12/05 15:00 UTC NOAA

Reykjavik, Iceland (BIRK) 64-08N 021-54W 61M
Dec 05, 2022 - 10:00 AM EST / 2022.12.05 1500 UTC
Wind: Calm:0
Visibility: greater than 7 mile(s):0
Temperature: 28 F (-2 C)
Dew Point: 28 F (-2 C)
Relative Humidity: 100%
Pressure (altimeter): 30.80 in. Hg (1043 hPa)
ob: BIRK 051500Z 00000KT CAVOK M02/M02 Q1043
cycle: 15

Station Type Date Time Source
BIRK TAF 2022/12/05 15:43 UTC NOAA

TAF BIRK 051339Z 0515/0615 12003KT 9999 FEW030 TX00/0615Z TNM03/0606Z
TEMPO 0515/0613 0600 FG BKN002
BECMG 0613/0615 BKN030

Example: see airport list